createdAt,value
2024-02-24T00:01:27.173Z,-0.75
2024-02-24T00:03:55.814Z,-0.90
2024-02-24T00:06:24.406Z,-0.77
2024-02-24T00:08:52.861Z,-0.92
2024-02-24T00:11:22.905Z,-0.95
2024-02-24T00:13:51.454Z,-0.74
2024-02-24T00:16:19.933Z,-0.49
2024-02-24T00:18:48.427Z,-0.39
2024-02-24T00:21:16.893Z,-0.51
2024-02-24T00:23:45.638Z,-0.64
2024-02-24T00:26:14.202Z,-0.45
2024-02-24T00:28:44.095Z,-0.52
2024-02-24T00:31:12.660Z,-0.22
2024-02-24T00:33:42.329Z,-0.10
2024-02-24T00:36:11.516Z,-0.18
2024-02-24T00:38:40.300Z,-0.11
2024-02-24T00:41:09.185Z,-0.35
2024-02-24T00:43:37.641Z,-0.21
2024-02-24T00:46:10.075Z,-0.10
2024-02-24T00:48:38.839Z,-0.16
2024-02-24T00:51:07.420Z,-0.03
2024-02-24T00:53:36.223Z,0.19
2024-02-24T00:56:05.186Z,-0.01
2024-02-24T00:58:33.644Z,0.12
2024-02-24T01:01:02.290Z,0.23
2024-02-24T01:03:32.337Z,0.21
2024-02-24T01:06:01.010Z,0.11
2024-02-24T01:08:29.548Z,0.13
2024-02-24T01:10:59.528Z,0.18
2024-02-24T01:13:28.065Z,0.48
2024-02-24T01:15:56.768Z,0.36
2024-02-24T01:18:25.284Z,0.17
2024-02-24T01:20:55.328Z,0.00
2024-02-24T01:23:23.025Z,0.37
2024-02-24T01:25:51.813Z,0.50
2024-02-24T01:28:20.601Z,0.40
2024-02-24T01:30:49.205Z,0.38
2024-02-24T01:33:17.810Z,0.57
2024-02-24T01:35:46.473Z,0.49
2024-02-24T01:38:16.394Z,0.53
2024-02-24T01:40:44.882Z,0.53
2024-02-24T01:43:30.551Z,0.41
2024-02-24T01:45:59.077Z,0.51
2024-02-24T01:48:27.902Z,0.53
2024-02-24T01:50:56.801Z,0.80
2024-02-24T01:53:27.578Z,0.70
2024-02-24T01:55:56.731Z,0.57
2024-02-24T01:58:26.096Z,0.39
2024-02-24T02:00:54.622Z,0.28
2024-02-24T02:03:23.125Z,0.25
2024-02-24T02:05:52.080Z,0.26
2024-02-24T02:08:20.720Z,0.13
2024-02-24T02:10:53.962Z,-0.28
2024-02-24T02:13:22.564Z,-0.45
2024-02-24T02:15:53.833Z,-0.84
2024-02-24T02:18:22.840Z,-0.43
2024-02-24T02:20:53.943Z,-0.25
2024-02-24T02:23:23.957Z,-0.20
2024-02-24T02:25:52.986Z,-0.14
2024-02-24T02:28:21.514Z,-0.21
2024-02-24T02:30:50.279Z,-0.21
2024-02-24T02:33:19.142Z,-0.34
2024-02-24T02:36:07.734Z,-0.52
2024-02-24T02:38:56.298Z,-0.41
2024-02-24T02:41:43.213Z,-0.40
2024-02-24T02:44:30.562Z,-0.30
2024-02-24T02:47:23.062Z,0.04
2024-02-24T02:50:11.310Z,0.09
2024-02-24T02:52:57.736Z,0.00
2024-02-24T02:55:27.662Z,0.24
2024-02-24T02:57:56.115Z,0.17
2024-02-24T03:00:24.754Z,0.17
2024-02-24T03:02:53.424Z,0.23
2024-02-24T03:05:22.142Z,0.38
2024-02-24T03:07:50.638Z,0.39
2024-02-24T03:10:19.224Z,0.20
2024-02-24T03:12:49.018Z,0.24
2024-02-24T03:15:17.942Z,0.35
2024-02-24T03:17:46.519Z,0.09
2024-02-24T03:20:15.947Z,0.25
2024-02-24T03:22:44.802Z,0.30
2024-02-24T03:25:13.280Z,0.16
2024-02-24T03:28:01.737Z,0.33
2024-02-24T03:30:30.200Z,-0.05
2024-02-24T03:32:59.104Z,-0.28
2024-02-24T03:35:27.715Z,-0.18
2024-02-24T03:37:57.690Z,-0.35
2024-02-24T03:40:26.126Z,-0.13
2024-02-24T03:42:54.579Z,0.03
2024-02-24T03:45:24.366Z,-0.37
2024-02-24T03:47:52.882Z,-0.29
2024-02-24T03:50:21.424Z,-0.31
2024-02-24T03:52:49.858Z,-0.12
2024-02-24T03:55:18.272Z,-0.23
2024-02-24T03:57:46.706Z,-0.06
2024-02-24T04:00:16.320Z,-0.17
2024-02-24T04:02:46.442Z,-0.05
2024-02-24T04:05:15.028Z,-0.35
2024-02-24T04:07:43.482Z,-0.14
2024-02-24T04:10:12.326Z,-0.24
2024-02-24T04:12:41.033Z,-0.20
2024-02-24T04:15:10.184Z,-0.36
2024-02-24T04:17:38.686Z,-0.06
2024-02-24T04:20:10.639Z,-0.09
2024-02-24T04:22:40.373Z,-0.25
2024-02-24T04:25:10.787Z,-0.37
2024-02-24T04:27:39.303Z,-0.18
2024-02-24T04:30:09.282Z,0.00
2024-02-24T04:32:37.855Z,0.14
2024-02-24T04:35:08.634Z,0.12
2024-02-24T04:37:37.233Z,0.25
2024-02-24T04:40:06.968Z,0.35
2024-02-24T04:42:35.365Z,0.33
2024-02-24T04:45:03.911Z,0.38
2024-02-24T04:47:32.457Z,0.40
2024-02-24T04:50:01.381Z,0.45
2024-02-24T04:52:31.226Z,0.55
2024-02-24T04:55:00.809Z,0.56
2024-02-24T04:57:29.397Z,0.58
2024-02-24T04:59:58.189Z,0.70
2024-02-24T05:02:26.658Z,0.71
2024-02-24T05:04:55.093Z,0.75
2024-02-24T05:07:23.502Z,0.66
2024-02-24T05:09:53.386Z,0.75
2024-02-24T05:12:21.853Z,0.52
2024-02-24T05:14:50.730Z,0.68
2024-02-24T05:17:19.286Z,0.66
2024-02-24T05:19:48.415Z,0.61
2024-02-24T05:22:16.831Z,0.80
2024-02-24T05:24:45.355Z,0.62
2024-02-24T05:27:15.201Z,0.48
2024-02-24T05:29:48.223Z,0.23
2024-02-24T05:32:17.967Z,0.50
2024-02-24T05:34:46.821Z,0.65
2024-02-24T05:37:16.779Z,0.34
2024-02-24T05:39:49.550Z,0.45
2024-02-24T05:42:21.644Z,0.46
2024-02-24T05:44:50.548Z,0.65
2024-02-24T05:47:19.179Z,0.64
2024-02-24T05:49:47.781Z,0.63
2024-02-24T05:52:18.499Z,0.70
2024-02-24T05:54:47.049Z,0.60
2024-02-24T05:57:15.561Z,0.66
2024-02-24T05:59:45.548Z,0.73
2024-02-24T06:02:14.285Z,0.83
2024-02-24T06:04:42.836Z,0.75
2024-02-24T06:07:11.256Z,0.64
2024-02-24T06:09:40.016Z,0.86
2024-02-24T06:12:09.721Z,0.83
2024-02-24T06:14:38.395Z,0.71
2024-02-24T06:17:08.348Z,0.82
2024-02-24T06:19:37.282Z,0.84
2024-02-24T06:22:06.167Z,0.77
2024-02-24T06:24:34.936Z,0.94
2024-02-24T06:27:03.378Z,0.99
2024-02-24T06:29:31.890Z,0.87
2024-02-24T06:32:00.377Z,0.98
2024-02-24T06:34:30.491Z,0.88
2024-02-24T06:36:59.263Z,0.63
2024-02-24T06:39:27.721Z,0.69
2024-02-24T06:41:56.196Z,0.88
2024-02-24T06:44:24.632Z,0.92
2024-02-24T06:46:55.160Z,0.97
2024-02-24T06:49:24.182Z,0.84
2024-02-24T06:51:54.106Z,0.81
2024-02-24T06:54:22.584Z,0.68
2024-02-24T06:56:51.338Z,0.68
2024-02-24T06:59:20.320Z,0.60
2024-02-24T07:01:48.830Z,0.85
2024-02-24T07:04:18.064Z,0.94
2024-02-24T07:06:46.471Z,0.84
2024-02-24T07:09:16.621Z,1.11
2024-02-24T07:11:45.477Z,0.89
2024-02-24T07:14:14.222Z,0.78
2024-02-24T07:16:43.427Z,0.51
2024-02-24T07:19:12.170Z,0.63
2024-02-24T07:21:44.376Z,0.66
2024-02-24T07:24:13.223Z,0.85
2024-02-24T07:26:50.479Z,0.87
2024-02-24T07:29:20.158Z,0.64
2024-02-24T07:31:48.616Z,0.70
2024-02-24T07:34:17.932Z,0.94
2024-02-24T07:36:46.416Z,0.95
2024-02-24T07:39:15.232Z,1.17
2024-02-24T07:41:46.246Z,1.44
2024-02-24T07:44:16.465Z,1.08
2024-02-24T07:46:45.523Z,1.41
2024-02-24T07:49:15.324Z,1.06
2024-02-24T07:51:44.392Z,1.26
2024-02-24T07:54:12.994Z,1.54
2024-02-24T07:56:41.440Z,1.47
2024-02-24T07:59:11.297Z,1.59
2024-02-24T08:01:40.090Z,1.33
2024-02-24T08:04:09.287Z,1.10
2024-02-24T08:06:38.081Z,1.33
2024-02-24T08:09:06.508Z,1.63
2024-02-24T08:11:41.368Z,1.61
2024-02-24T08:14:11.970Z,1.49
2024-02-24T08:16:40.480Z,1.40
2024-02-24T08:19:09.281Z,1.21
2024-02-24T08:21:39.283Z,1.25
2024-02-24T08:24:10.410Z,1.13
2024-02-24T08:26:41.915Z,1.04
2024-02-24T08:29:12.311Z,1.09
2024-02-24T08:31:41.271Z,1.01
2024-02-24T08:34:09.922Z,1.26
2024-02-24T08:36:38.893Z,1.40
2024-02-24T08:39:07.750Z,1.29
2024-02-24T08:41:38.138Z,1.33
2024-02-24T08:44:07.237Z,1.20
2024-02-24T08:46:37.257Z,1.27
2024-02-24T08:49:05.735Z,1.59
2024-02-24T08:51:34.484Z,1.99
2024-02-24T08:54:02.975Z,1.86
2024-02-24T08:56:31.457Z,2.85
2024-02-24T08:58:59.978Z,3.35
2024-02-24T09:01:28.614Z,4.15
2024-02-24T09:04:00.712Z,3.81
2024-02-24T09:06:29.591Z,4.44
2024-02-24T09:08:58.329Z,4.38
2024-02-24T09:11:26.879Z,2.57
2024-02-24T09:13:55.352Z,2.95
2024-02-24T09:16:23.777Z,2.83
2024-02-24T09:18:54.016Z,2.67
2024-02-24T09:21:24.169Z,2.61
2024-02-24T09:23:53.024Z,2.68
2024-02-24T09:26:21.627Z,3.14
2024-02-24T09:28:50.076Z,3.09
2024-02-24T09:31:18.543Z,2.82
2024-02-24T09:33:51.302Z,3.49
2024-02-24T09:36:19.760Z,3.32
2024-02-24T09:38:49.812Z,2.87
2024-02-24T09:41:19.633Z,3.36
2024-02-24T09:43:49.128Z,3.29
2024-02-24T09:46:18.033Z,2.85
2024-02-24T09:48:49.049Z,3.23
2024-02-24T09:51:17.567Z,3.48
2024-02-24T09:53:46.318Z,4.58
2024-02-24T09:56:19.193Z,3.94
2024-02-24T09:58:48.736Z,4.32
2024-02-24T10:01:17.508Z,4.24
2024-02-24T10:03:47.489Z,3.91
2024-02-24T10:06:17.754Z,4.40
2024-02-24T10:08:46.929Z,3.11
2024-02-24T10:11:16.806Z,3.44
2024-02-24T10:13:48.386Z,3.52
2024-02-24T10:16:18.611Z,4.40
2024-02-24T10:18:47.184Z,4.08
2024-02-24T10:21:15.759Z,3.97
2024-02-24T10:23:44.254Z,3.99
2024-02-24T10:26:12.752Z,4.63
2024-02-24T10:28:43.040Z,4.51
2024-02-24T10:31:12.440Z,4.77
2024-02-24T10:33:42.090Z,4.99
2024-02-24T10:36:12.000Z,5.01
2024-02-24T10:38:45.549Z,5.23
2024-02-24T10:41:22.899Z,5.18
2024-02-24T10:44:06.064Z,4.83
2024-02-24T10:46:43.589Z,4.67
2024-02-24T10:49:13.107Z,5.19
2024-02-24T10:51:47.453Z,4.52
2024-02-24T10:54:20.953Z,4.94
2024-02-24T10:56:55.963Z,4.93
2024-02-24T10:59:31.467Z,4.59
2024-02-24T11:02:02.890Z,4.63
2024-02-24T11:04:32.513Z,4.84
2024-02-24T11:07:02.090Z,4.12
2024-02-24T11:09:36.370Z,3.98
2024-02-24T11:12:07.409Z,3.94
2024-02-24T11:14:39.637Z,3.76
2024-02-24T11:17:08.557Z,3.19
2024-02-24T11:19:45.310Z,3.86
2024-02-24T11:22:20.576Z,3.67
2024-02-24T11:25:02.088Z,3.72
2024-02-24T11:27:31.608Z,4.40
2024-02-24T11:30:40.294Z,4.91
2024-02-24T11:33:25.263Z,5.28
2024-02-24T11:35:55.048Z,5.30
2024-02-24T11:38:25.302Z,5.41
2024-02-24T11:40:54.634Z,4.54
2024-02-24T11:43:23.161Z,4.56
2024-02-24T11:45:55.060Z,4.72
2024-02-24T11:48:24.459Z,4.76
2024-02-24T11:50:53.860Z,5.33
2024-02-24T11:53:22.593Z,4.66
2024-02-24T11:55:51.188Z,5.16
2024-02-24T11:58:19.655Z,5.43
2024-02-24T12:00:48.092Z,5.55
2024-02-24T12:03:18.773Z,5.22
2024-02-24T12:05:47.327Z,4.95
2024-02-24T12:08:19.801Z,5.30
2024-02-24T12:10:48.613Z,5.10
2024-02-24T12:13:17.098Z,5.36
2024-02-24T12:15:47.015Z,5.00
2024-02-24T12:18:17.398Z,5.12
2024-02-24T12:20:49.343Z,4.89
2024-02-24T12:23:18.666Z,4.95
2024-02-24T12:25:47.733Z,5.06
2024-02-24T12:28:17.216Z,4.89
2024-02-24T12:30:47.001Z,4.89
2024-02-24T12:33:19.299Z,4.97
2024-02-24T12:35:50.570Z,5.41
2024-02-24T12:38:19.841Z,4.90
2024-02-24T12:40:48.532Z,4.89
2024-02-24T12:43:16.945Z,4.85
2024-02-24T12:45:45.446Z,5.06
2024-02-24T12:48:14.120Z,5.02
2024-02-24T12:50:46.672Z,4.65
2024-02-24T12:53:15.904Z,4.87
2024-02-24T12:55:44.330Z,4.37
2024-02-24T12:58:13.047Z,4.25
2024-02-24T13:00:41.591Z,4.17
2024-02-24T13:03:10.425Z,4.33
2024-02-24T13:05:39.004Z,4.32
2024-02-24T13:08:09.245Z,4.42
2024-02-24T13:10:38.261Z,4.27
2024-02-24T13:13:06.733Z,4.37
2024-02-24T13:15:35.450Z,4.15
2024-02-24T13:18:04.382Z,4.46
2024-02-24T13:20:32.844Z,4.42
2024-02-24T13:23:01.634Z,4.24
2024-02-24T13:25:31.404Z,4.33
2024-02-24T13:28:00.394Z,4.09
2024-02-24T13:30:28.806Z,4.03
2024-02-24T13:32:58.225Z,4.00
2024-02-24T13:35:26.817Z,3.80
2024-02-24T13:37:55.412Z,3.40
2024-02-24T13:40:25.519Z,3.72
2024-02-24T13:42:55.593Z,3.64
2024-02-24T13:45:24.052Z,3.45
2024-02-24T13:47:53.774Z,3.30
2024-02-24T13:50:23.883Z,3.36
2024-02-24T13:52:52.481Z,3.36
2024-02-24T13:55:20.935Z,2.90
2024-02-24T13:57:49.514Z,3.15
2024-02-24T14:00:20.292Z,3.36
2024-02-24T14:02:48.755Z,3.14
2024-02-24T14:05:17.554Z,3.14
2024-02-24T14:07:46.413Z,2.99
2024-02-24T14:10:14.876Z,3.70
2024-02-24T14:12:43.358Z,3.29
2024-02-24T14:15:14.052Z,3.83
2024-02-24T14:17:43.938Z,3.34
2024-02-24T14:20:22.648Z,3.55
2024-02-24T14:22:54.129Z,3.48
2024-02-24T14:25:22.588Z,3.47
2024-02-24T14:27:51.126Z,3.44
2024-02-24T14:30:19.754Z,3.64
2024-02-24T14:32:49.945Z,3.33
2024-02-24T14:35:25.494Z,3.35
2024-02-24T14:37:54.289Z,3.67
2024-02-24T14:40:22.901Z,3.77
2024-02-24T14:42:51.438Z,3.44
2024-02-24T14:45:19.848Z,3.56
2024-02-24T14:47:49.966Z,3.62
2024-02-24T14:50:18.951Z,3.40
2024-02-24T14:52:48.019Z,3.56
2024-02-24T14:55:16.883Z,3.92
2024-02-24T14:57:45.377Z,4.09
2024-02-24T15:00:14.909Z,3.97
2024-02-24T15:02:52.525Z,3.89
2024-02-24T15:05:33.830Z,3.89
2024-02-24T15:08:03.641Z,4.21
2024-02-24T15:10:32.078Z,3.87
2024-02-24T15:13:00.495Z,4.10
2024-02-24T15:15:29.065Z,4.03
2024-02-24T15:17:59.668Z,4.00
2024-02-24T15:20:28.512Z,3.77
2024-02-24T15:22:58.397Z,3.34
2024-02-24T15:25:26.830Z,3.35
2024-02-24T15:27:55.240Z,3.33
2024-02-24T15:30:23.918Z,3.16
2024-02-24T15:32:57.735Z,3.29
2024-02-24T15:35:27.189Z,3.33
2024-02-24T15:37:58.864Z,3.09
2024-02-24T15:40:29.528Z,2.98
2024-02-24T15:42:59.118Z,3.19
2024-02-24T15:45:27.546Z,2.99
2024-02-24T15:47:56.075Z,3.16
2024-02-24T15:50:24.570Z,3.20
2024-02-24T15:52:53.752Z,3.53
2024-02-24T15:55:24.243Z,3.36
2024-02-24T15:57:53.228Z,3.33
2024-02-24T16:00:22.340Z,2.89
2024-02-24T16:02:50.839Z,2.66
2024-02-24T16:05:22.926Z,2.82
2024-02-24T16:07:51.932Z,2.68
2024-02-24T16:10:20.380Z,2.78
2024-02-24T16:12:50.169Z,2.62
2024-02-24T16:15:18.658Z,2.91
2024-02-24T16:17:47.543Z,2.65
2024-02-24T16:20:18.026Z,2.46
2024-02-24T16:22:46.864Z,2.55
2024-02-24T16:25:16.679Z,2.22
2024-02-24T16:27:45.301Z,2.25
2024-02-24T16:30:16.128Z,2.50
2024-02-24T16:32:44.800Z,2.34
2024-02-24T16:35:13.739Z,2.26
2024-02-24T16:37:42.506Z,2.47
2024-02-24T16:40:12.212Z,2.28
2024-02-24T16:42:40.795Z,2.40
2024-02-24T16:45:10.779Z,2.21
2024-02-24T16:47:40.663Z,2.08
2024-02-24T16:50:12.072Z,1.78
2024-02-24T16:52:40.606Z,1.59
2024-02-24T16:55:11.218Z,1.39
2024-02-24T16:57:40.453Z,1.60
2024-02-24T17:00:11.904Z,1.41
2024-02-24T17:02:41.939Z,1.52
2024-02-24T17:05:12.232Z,1.52
2024-02-24T17:07:41.070Z,1.38
2024-02-24T17:10:10.268Z,1.69
2024-02-24T17:12:38.771Z,1.58
2024-02-24T17:15:11.670Z,1.52
2024-02-24T17:17:41.966Z,1.42
2024-02-24T17:20:11.688Z,1.47
2024-02-24T17:22:40.847Z,1.33
2024-02-24T17:25:10.421Z,1.27
2024-02-24T17:27:40.572Z,1.34
2024-02-24T17:30:10.722Z,1.30
2024-02-24T17:32:39.242Z,1.06
2024-02-24T17:35:10.280Z,0.80
2024-02-24T17:37:39.291Z,1.03
2024-02-24T17:40:09.345Z,1.06
2024-02-24T17:42:38.059Z,0.89
2024-02-24T17:45:09.340Z,0.76
2024-02-24T17:47:37.890Z,0.74
2024-02-24T17:50:10.167Z,0.84
2024-02-24T17:52:38.597Z,0.91
2024-02-24T17:55:08.074Z,0.99
2024-02-24T17:57:36.774Z,0.81
2024-02-24T18:00:09.912Z,0.96
2024-02-24T18:02:40.168Z,0.64
2024-02-24T18:05:11.823Z,0.87
2024-02-24T18:07:40.314Z,0.44
2024-02-24T18:10:09.782Z,0.60
2024-02-24T18:12:39.220Z,0.18
2024-02-24T18:15:09.626Z,0.11
2024-02-24T18:17:38.215Z,0.17
2024-02-24T18:20:10.222Z,0.23
2024-02-24T18:22:42.550Z,0.11
2024-02-24T18:25:12.527Z,-0.28
2024-02-24T18:27:41.007Z,-0.21
2024-02-24T18:30:10.402Z,0.10
2024-02-24T18:32:39.040Z,-0.28
2024-02-24T18:35:10.008Z,-0.50
2024-02-24T18:37:39.331Z,-0.67
2024-02-24T18:40:11.666Z,-0.42
2024-02-24T18:42:42.838Z,-0.40
2024-02-24T18:45:13.347Z,-0.33
2024-02-24T18:47:42.124Z,-0.39
2024-02-24T18:50:12.715Z,-0.61
2024-02-24T18:52:41.425Z,-0.68
2024-02-24T18:55:11.124Z,-0.58
2024-02-24T18:57:39.549Z,-0.74
2024-02-24T19:00:10.132Z,-0.43
2024-02-24T19:02:42.173Z,-0.53
2024-02-24T19:05:12.793Z,-0.36
2024-02-24T19:07:43.980Z,-0.37
2024-02-24T19:10:12.452Z,-0.59
2024-02-24T19:12:40.866Z,-0.66
2024-02-24T19:15:10.016Z,-0.62
2024-02-24T19:17:38.626Z,-0.46
2024-02-24T19:20:09.261Z,-0.62
2024-02-24T19:22:39.164Z,-0.48
2024-02-24T19:25:08.886Z,-0.46
2024-02-24T19:27:37.730Z,-0.93
2024-02-24T19:30:08.504Z,-0.87
2024-02-24T19:32:37.279Z,-0.74
2024-02-24T19:35:07.859Z,-0.93
2024-02-24T19:37:36.370Z,-1.37
2024-02-24T19:40:07.325Z,-0.93
2024-02-24T19:42:35.919Z,-1.04
2024-02-24T19:45:04.916Z,-1.39
2024-02-24T19:47:33.535Z,-1.52
2024-02-24T19:50:02.116Z,-1.44
2024-02-24T19:52:30.592Z,-1.40
2024-02-24T19:54:59.090Z,-1.50
2024-02-24T19:57:28.915Z,-1.78
2024-02-24T19:59:58.565Z,-1.45
2024-02-24T20:02:28.222Z,-1.14
2024-02-24T20:04:56.704Z,-1.42
2024-02-24T20:07:25.293Z,-1.65
2024-02-24T20:09:54.140Z,-1.10
2024-02-24T20:12:22.699Z,-1.12
2024-02-24T20:14:52.581Z,-1.33
2024-02-24T20:17:21.208Z,-1.08
2024-02-24T20:19:49.738Z,-1.11
2024-02-24T20:22:18.505Z,-0.98
2024-02-24T20:24:47.136Z,-1.31
2024-02-24T20:27:15.954Z,-1.11
2024-02-24T20:29:44.420Z,-1.21
2024-02-24T20:32:14.327Z,-1.06
2024-02-24T20:34:43.100Z,-1.34
2024-02-24T20:37:11.990Z,-1.72
2024-02-24T20:39:40.904Z,-1.72
2024-02-24T20:42:09.698Z,-1.97
2024-02-24T20:44:39.648Z,-1.73
2024-02-24T20:47:08.426Z,-1.48
2024-02-24T20:49:38.316Z,-1.70
2024-02-24T20:52:07.193Z,-1.71
2024-02-24T20:54:39.680Z,-1.78
2024-02-24T20:57:08.716Z,-1.77
2024-02-24T20:59:37.280Z,-1.67
2024-02-24T21:02:07.139Z,-1.71
2024-02-24T21:04:37.166Z,-1.51
2024-02-24T21:07:05.974Z,-1.68
2024-02-24T21:09:34.710Z,-1.55
2024-02-24T21:12:03.525Z,-1.48
2024-02-24T21:14:32.161Z,-1.74
2024-02-24T21:17:00.883Z,-1.58
2024-02-24T21:19:29.395Z,-1.74
2024-02-24T21:22:00.654Z,-1.91
2024-02-24T21:24:29.090Z,-1.61
2024-02-24T21:26:57.663Z,-1.84
2024-02-24T21:29:26.146Z,-2.03
2024-02-24T21:31:55.638Z,-1.91
2024-02-24T21:34:24.270Z,-1.98
2024-02-24T21:36:53.078Z,-2.19
2024-02-24T21:39:22.898Z,-2.02
2024-02-24T21:41:51.392Z,-1.92
2024-02-24T21:44:19.943Z,-1.80
2024-02-24T21:46:48.717Z,-2.16
2024-02-24T21:49:18.771Z,-2.70
2024-02-24T21:51:47.360Z,-2.33
2024-02-24T21:54:16.683Z,-2.37
2024-02-24T21:56:52.062Z,-2.35
2024-02-24T21:59:20.890Z,-2.38
2024-02-24T22:01:49.384Z,-2.50
2024-02-24T22:04:18.155Z,-2.58
2024-02-24T22:06:46.611Z,-2.68
2024-02-24T22:09:15.247Z,-2.21
2024-02-24T22:11:45.105Z,-2.25
2024-02-24T22:14:20.190Z,-2.32
2024-02-24T22:16:49.435Z,-2.10
2024-02-24T22:19:18.047Z,-2.51
2024-02-24T22:21:48.197Z,-2.41
2024-02-24T22:24:17.181Z,-2.34
2024-02-24T22:26:48.635Z,-2.71
2024-02-24T22:29:18.364Z,-2.77
2024-02-24T22:31:48.035Z,-2.99
2024-02-24T22:34:16.944Z,-2.93
2024-02-24T22:36:45.821Z,-3.29
2024-02-24T22:39:14.863Z,-3.03
2024-02-24T22:41:43.650Z,-3.01
2024-02-24T22:44:14.687Z,-2.86
2024-02-24T22:46:43.185Z,-2.61
2024-02-24T22:49:12.323Z,-2.36
2024-02-24T22:51:41.155Z,-2.33
2024-02-24T22:54:09.978Z,-2.51
2024-02-24T22:56:38.507Z,-2.76
2024-02-24T22:59:07.133Z,-2.59
2024-02-24T23:01:36.910Z,-2.36
2024-02-24T23:04:06.285Z,-2.53
2024-02-24T23:06:34.785Z,-2.29
2024-02-24T23:09:03.753Z,-2.36
2024-02-24T23:11:39.063Z,-2.11
2024-02-24T23:14:09.641Z,-2.26
2024-02-24T23:16:39.817Z,-2.44
2024-02-24T23:19:08.825Z,-2.32
2024-02-24T23:21:37.950Z,-2.35
2024-02-24T23:24:07.465Z,-2.52
2024-02-24T23:26:36.001Z,-2.34
2024-02-24T23:29:04.647Z,-2.65
2024-02-24T23:31:33.344Z,-2.63
2024-02-24T23:34:03.535Z,-2.61
2024-02-24T23:36:32.619Z,-2.70
2024-02-24T23:39:01.251Z,-2.59
2024-02-24T23:41:31.511Z,-2.63
2024-02-24T23:44:00.293Z,-2.56
2024-02-24T23:46:28.735Z,-2.60
2024-02-24T23:48:57.676Z,-2.87
2024-02-24T23:51:27.714Z,-2.85
2024-02-24T23:53:56.159Z,-3.08
2024-02-24T23:56:25.536Z,-3.45
2024-02-24T23:58:54.308Z,-3.35
